Terminal Aerodrome Forecast
Issued by NWS Northern Indiana

Home | Current Version | Previous Version | Graphics & Text | Print | Product List | Glossary On
Versions: 1 2 3 4 5 6 7 8 9 10 11 12
000
FTUS43 KIWX 251731
TAFFWA
TAF
KFWA 251731Z 2518/2618 13005KT P6SM SCT060
     FM260400 20008KT P6SM VCSH BKN040
     FM260700 24008KT 5SM -SHRA BR OVC020
     FM261500 27013G22KT P6SM SCT040=

USA.gov is the U.S. government's official web portal to all federal, state and local government web resources and services.